Time;durP1;ratioP1;P1;durP2;ratioP2;P2;SDS_P1;SDS_P2;PMS_P1;PMS_P2;Temp;Humidity;BMP_temperature;BMP_pressure;BME280_temperature;BME280_humidity;BME280_pressure;Samples;Min_cycle;Max_cycle;Signal;HPM_P1;HPM_P2
2023/08/01 00:02:24;;;;;;;11.73;7.50;;;;;;;26.58;60.44;98463.00;5033332;28;20174;-88
2023/08/01 00:04:49;;;;;;;11.47;6.90;;;;;;;26.60;60.09;98460.09;5033495;28;20228;-88
2023/08/01 00:07:15;;;;;;;9.87;6.67;;;;;;;26.61;59.81;98462.59;5033755;28;20197;-88
2023/08/01 00:09:40;;;;;;;11.73;6.63;;;;;;;26.64;59.99;98466.75;5033069;28;20186;-88
2023/08/01 00:12:06;;;;;;;13.00;6.17;;;;;;;26.62;60.12;98469.66;5033353;28;20194;-88
2023/08/01 00:14:32;;;;;;;10.80;6.80;;;;;;;26.63;60.54;98468.59;5033248;28;20178;-88
2023/08/01 00:16:58;;;;;;;11.53;6.10;;;;;;;26.68;60.42;98466.13;5033180;28;20201;-89
2023/08/01 00:19:23;;;;;;;9.50;6.20;;;;;;;26.70;60.26;98458.69;5033660;28;20182;-89
2023/08/01 00:21:49;;;;;;;11.52;6.30;;;;;;;26.77;60.37;98451.53;5033112;28;20190;-89
2023/08/01 00:24:14;;;;;;;10.18;6.03;;;;;;;26.72;60.45;98458.50;5033075;28;20214;-89
2023/08/01 00:26:40;;;;;;;10.32;6.70;;;;;;;26.58;60.79;98451.41;5033033;28;20171;-89
2023/08/01 00:29:08;;;;;;;8.20;5.87;;;;;;;26.66;60.34;98456.63;5015614;28;20182;-89
2023/08/01 00:31:34;;;;;;;9.43;5.82;;;;;;;26.74;59.95;98456.44;5033551;28;20320;-89
2023/08/01 00:33:59;;;;;;;11.63;6.32;;;;;;;26.79;59.81;98446.78;5015608;28;20261;-89
2023/08/01 00:36:24;;;;;;;8.43;5.43;;;;;;;26.86;59.22;98452.19;5032968;28;20175;-89
2023/08/01 00:38:50;;;;;;;10.32;6.18;;;;;;;26.84;59.56;98448.88;5033458;28;20182;-88
2023/08/01 00:41:15;;;;;;;12.18;6.80;;;;;;;26.83;59.14;98439.97;5032831;28;20297;-89
2023/08/01 00:43:41;;;;;;;9.77;6.15;;;;;;;26.83;58.67;98439.16;5033139;28;20292;-87
2023/08/01 00:46:08;;;;;;;8.23;5.65;;;;;;;26.77;59.35;98435.41;5033123;28;20178;-88
2023/08/01 00:48:33;;;;;;;8.10;5.55;;;;;;;26.77;58.84;98432.72;5032754;28;20246;-88
2023/08/01 00:51:09;;;;;;;12.50;6.22;;;;;;;26.74;59.13;98432.25;5034117;28;20570;-89
2023/08/01 00:53:35;;;;;;;9.68;5.72;;;;;;;26.63;59.79;98424.75;5036952;28;20191;-89
2023/08/01 00:56:01;;;;;;;8.32;5.78;;;;;;;26.59;59.96;98427.03;5036547;28;20636;-88
2023/08/01 00:58:27;;;;;;;13.13;5.82;;;;;;;26.54;60.21;98428.66;5036688;28;20170;-88
2023/08/01 01:00:52;;;;;;;11.38;6.28;;;;;;;26.51;60.17;98423.66;5036424;28;20272;-88
2023/08/01 01:03:18;;;;;;;8.93;5.93;;;;;;;26.49;60.02;98418.50;5036531;28;20202;-88
2023/08/01 01:06:06;;;;;;;12.27;6.13;;;;;;;26.53;60.61;98421.59;5037446;28;20194;-88
2023/08/01 01:08:55;;;;;;;8.20;5.80;;;;;;;26.49;60.79;98417.66;5036706;28;20246;-88
2023/08/01 01:11:20;;;;;;;10.03;6.23;;;;;;;26.49;60.69;98425.72;5037452;28;20170;-92
2023/08/01 01:13:46;;;;;;;10.15;6.53;;;;;;;26.52;60.83;98430.72;5019402;28;20206;-92
2023/08/01 01:16:11;;;;;;;8.20;5.73;;;;;;;26.46;61.16;98429.63;5019273;28;20628;-91
2023/08/01 01:18:37;;;;;;;9.18;5.80;;;;;;;26.43;61.07;98429.19;5036631;28;20171;-91
2023/08/01 01:21:02;;;;;;;8.70;5.53;;;;;;;26.41;60.85;98429.41;5018992;28;20564;-90
2023/08/01 01:23:29;;;;;;;10.13;6.25;;;;;;;26.42;61.19;98430.22;5019086;28;20170;-91
2023/08/01 01:25:57;;;;;;;10.60;5.67;;;;;;;26.40;60.93;98432.28;5036281;28;20194;-91
2023/08/01 01:28:23;;;;;;;9.15;5.85;;;;;;;26.40;61.26;98432.28;5018648;28;20192;-91
2023/08/01 01:30:49;;;;;;;9.98;6.82;;;;;;;26.38;61.17;98426.28;5036432;28;20166;-91
2023/08/01 01:33:16;;;;;;;8.57;6.33;;;;;;;26.36;61.21;98422.97;5036229;28;20166;-91
2023/08/01 01:35:41;;;;;;;12.20;6.87;;;;;;;26.36;61.47;98425.66;5018701;28;20179;-91
2023/08/01 01:38:06;;;;;;;10.13;6.77;;;;;;;26.35;61.55;98427.50;5036404;28;20174;-90
2023/08/01 01:40:33;;;;;;;9.10;6.13;;;;;;;26.29;61.77;98419.38;5036051;28;20674;-91
2023/08/01 01:42:59;;;;;;;9.03;6.37;;;;;;;26.32;61.54;98424.38;5036580;28;20604;-91
2023/08/01 01:45:25;;;;;;;11.10;6.33;;;;;;;26.33;61.36;98421.50;5018734;28;20232;-90
2023/08/01 01:47:51;;;;;;;8.77;5.87;;;;;;;26.36;61.54;98414.91;5018589;28;20182;-91
2023/08/01 01:50:17;;;;;;;10.00;6.45;;;;;;;26.35;61.29;98414.06;5018529;28;20181;-90
2023/08/01 01:52:43;;;;;;;9.50;5.90;;;;;;;26.33;61.30;98426.88;5036210;28;20198;-91
2023/08/01 01:55:09;;;;;;;9.27;5.88;;;;;;;26.27;61.62;98422.28;5018551;28;20213;-91
2023/08/01 01:57:36;;;;;;;9.27;6.13;;;;;;;26.24;61.45;98411.94;5035917;28;20171;-92
2023/08/01 02:00:02;;;;;;;9.33;6.23;;;;;;;26.19;61.49;98417.06;5018432;28;20237;-91
2023/08/01 02:02:27;;;;;;;9.00;5.90;;;;;;;26.18;61.73;98415.38;5018153;28;20174;-91
2023/08/01 02:04:53;;;;;;;13.20;7.47;;;;;;;26.14;61.83;98420.34;5018110;28;20258;-90
2023/08/01 02:07:18;;;;;;;13.03;6.63;;;;;;;26.11;61.91;98418.00;5035963;28;20167;-92
2023/08/01 02:09:44;;;;;;;10.40;6.30;;;;;;;26.08;61.80;98418.41;5035558;28;20225;-91
2023/08/01 02:12:09;;;;;;;11.00;7.03;;;;;;;26.07;61.74;98416.72;5035487;28;20202;-91
2023/08/01 02:14:36;;;;;;;11.60;7.07;;;;;;;26.04;61.92;98422.53;5035372;28;20166;-90
2023/08/01 02:17:01;;;;;;;12.33;6.87;;;;;;;25.97;61.98;98420.81;5018032;28;20182;-90
2023/08/01 02:19:27;;;;;;;11.33;7.17;;;;;;;25.96;62.27;98413.78;5035185;28;20186;-90
2023/08/01 02:21:53;;;;;;;11.80;7.77;;;;;;;25.95;62.31;98412.94;5035301;28;20205;-91
2023/08/01 02:24:19;;;;;;;13.13;8.10;;;;;;;25.93;62.03;98412.31;5035068;28;20259;-91
2023/08/01 02:26:44;;;;;;;11.03;7.43;;;;;;;25.90;62.24;98415.38;5017929;28;20253;-91
2023/08/01 02:29:10;;;;;;;13.17;7.53;;;;;;;25.80;62.61;98414.88;5017841;28;20563;-90
2023/08/01 02:31:35;;;;;;;13.13;7.13;;;;;;;25.79;62.99;98418.59;5035499;28;20543;-91
2023/08/01 02:34:01;;;;;;;11.75;7.45;;;;;;;25.79;62.62;98412.38;5018075;28;20531;-90
2023/08/01 02:36:26;;;;;;;13.00;8.37;;;;;;;25.74;63.00;98409.44;5017687;28;20291;-91
2023/08/01 02:38:52;;;;;;;11.53;7.80;;;;;;;25.71;63.45;98410.66;5035089;28;20175;-90
2023/08/01 02:41:17;;;;;;;10.20;7.30;;;;;;;25.65;63.76;98406.09;5034909;28;20616;-91
2023/08/01 02:43:43;;;;;;;12.77;7.83;;;;;;;25.52;64.70;98400.63;5017538;28;20197;-90
2023/08/01 02:46:08;;;;;;;12.30;7.03;;;;;;;25.52;64.91;98395.25;5034666;28;20292;-91
2023/08/01 02:48:35;;;;;;;11.40;7.00;;;;;;;25.57;64.20;98403.56;5017387;28;20644;-91
2023/08/01 02:51:01;;;;;;;9.67;6.77;;;;;;;25.57;64.11;98404.38;5017265;28;20253;-90
2023/08/01 02:53:26;;;;;;;11.03;6.80;;;;;;;25.56;63.92;98413.44;5017127;28;20720;-90
2023/08/01 02:55:52;;;;;;;11.10;7.30;;;;;;;25.56;64.13;98417.97;5017424;28;20659;-91
2023/08/01 02:58:17;;;;;;;10.23;6.50;;;;;;;25.62;63.73;98422.59;5017238;28;20178;-91
2023/08/01 03:00:42;;;;;;;9.90;6.67;;;;;;;25.56;63.70;98423.34;5017057;28;20209;-90
2023/08/01 03:03:08;;;;;;;10.43;7.43;;;;;;;25.52;64.07;98417.53;5034787;28;20253;-91
2023/08/01 03:05:40;;;;;;;14.10;7.83;;;;;;;25.45;64.44;98421.97;5016994;28;20200;-90
2023/08/01 03:08:05;;;;;;;12.23;7.83;;;;;;;25.40;64.55;98423.56;5017321;28;20174;-91
2023/08/01 03:10:31;;;;;;;9.93;7.00;;;;;;;25.44;64.39;98419.50;5017238;28;20671;-91
2023/08/01 03:12:56;;;;;;;10.27;7.20;;;;;;;25.43;64.42;98429.41;5016841;28;20258;-91
2023/08/01 03:15:22;;;;;;;16.43;7.30;;;;;;;25.44;64.59;98424.88;5033799;28;20269;-91
2023/08/01 03:17:47;;;;;;;11.93;7.47;;;;;;;25.44;64.00;98424.88;5016957;28;20180;-91
2023/08/01 03:20:12;;;;;;;13.93;8.00;;;;;;;25.44;64.26;98424.88;5017037;28;20195;-91
2023/08/01 03:22:39;;;;;;;11.90;7.00;;;;;;;25.41;64.13;98438.66;5016855;28;20178;-90
2023/08/01 03:25:07;;;;;;;11.07;6.97;;;;;;;25.40;64.10;98435.13;5016858;28;20216;-91
2023/08/01 03:27:35;;;;;;;10.50;7.50;;;;;;;25.38;64.54;98431.81;5016675;28;20188;-91
2023/08/01 03:30:01;;;;;;;13.03;7.83;;;;;;;25.38;64.44;98439.03;5016777;28;20235;-91
2023/08/01 03:32:27;;;;;;;12.07;7.83;;;;;;;25.38;64.51;98431.00;5034101;28;20645;-90
2023/08/01 03:34:52;;;;;;;11.60;7.47;;;;;;;25.39;64.15;98438.84;5033975;28;20652;-91
2023/08/01 03:37:18;;;;;;;12.30;7.83;;;;;;;25.40;64.41;98439.66;5016645;28;20558;-90
2023/08/01 03:39:43;;;;;;;11.27;7.90;;;;;;;25.41;64.20;98446.72;5033723;28;20257;-91
2023/08/01 03:42:09;;;;;;;17.53;9.43;;;;;;;25.44;63.93;98447.16;5033927;28;20174;-91
2023/08/01 03:44:35;;;;;;;14.50;8.37;;;;;;;25.46;63.88;98447.84;5016228;28;20178;-90
2023/08/01 03:47:00;;;;;;;12.30;8.20;;;;;;;25.47;63.61;98449.47;5016514;28;20185;-91
2023/08/01 03:49:25;;;;;;;14.53;8.23;;;;;;;25.52;63.70;98446.25;5034006;28;20182;-91
2023/08/01 03:51:51;;;;;;;14.13;8.40;;;;;;;25.52;63.89;98444.38;5016550;28;20175;-91
2023/08/01 03:54:16;;;;;;;12.87;8.67;;;;;;;25.54;64.04;98446.88;5016247;28;20210;-85
2023/08/01 03:56:43;;;;;;;13.47;8.27;;;;;;;25.56;63.62;98450.19;5033491;28;20182;-85
2023/08/01 03:59:13;;;;;;;16.27;8.93;;;;;;;25.57;63.30;98452.69;5033620;28;20197;-85
2023/08/01 04:01:38;;;;;;;11.57;7.63;;;;;;;25.58;63.13;98448.13;5015774;28;20194;-85
2023/08/01 04:04:04;;;;;;;13.03;8.43;;;;;;;25.64;63.25;98456.25;5033266;28;20640;-84
2023/08/01 04:06:29;;;;;;;13.97;8.90;;;;;;;25.62;63.53;98455.63;5015978;28;20170;-85
2023/08/01 04:08:56;;;;;;;14.07;9.27;;;;;;;25.65;63.42;98451.72;5015947;28;20212;-85
2023/08/01 04:11:22;;;;;;;11.80;8.23;;;;;;;25.70;63.39;98454.66;5033130;28;20188;-85
2023/08/01 04:13:47;;;;;;;13.63;9.10;;;;;;;25.74;63.23;98455.94;5033223;28;20182;-85
2023/08/01 04:16:13;;;;;;;13.53;8.17;;;;;;;25.76;63.22;98463.81;5033404;28;20603;-85
2023/08/01 04:18:38;;;;;;;15.50;9.03;;;;;;;25.80;63.49;98462.38;5015816;28;20220;-85
2023/08/01 04:21:04;;;;;;;14.27;9.63;;;;;;;25.84;63.14;98461.78;5015712;28;20198;-85
2023/08/01 04:23:29;;;;;;;13.10;9.27;;;;;;;25.87;62.76;98458.72;5033181;28;20174;-85
2023/08/01 04:25:55;;;;;;;12.50;8.73;;;;;;;25.90;63.14;98463.72;5018347;28;20613;-85
2023/08/01 04:28:20;;;;;;;13.77;9.17;;;;;;;25.95;63.05;98460.44;5037276;28;20170;-85
2023/08/01 04:30:50;;;;;;;15.10;9.23;;;;;;;25.97;63.38;98461.91;5037193;28;20166;-85
2023/08/01 04:33:15;;;;;;;13.60;8.80;;;;;;;26.00;63.09;98469.56;5019780;28;20171;-85
2023/08/01 04:35:40;;;;;;;16.20;8.87;;;;;;;26.03;62.50;98469.19;5019714;28;20261;-85
2023/08/01 04:38:06;;;;;;;14.10;9.33;;;;;;;26.08;62.81;98471.28;5019513;28;20517;-85
2023/08/01 04:40:31;;;;;;;12.70;8.33;;;;;;;26.10;62.84;98480.81;5036951;28;20209;-85
2023/08/01 04:42:56;;;;;;;14.80;9.53;;;;;;;26.02;63.33;98483.63;5037262;28;20166;-85
2023/08/01 04:45:22;;;;;;;16.60;10.53;;;;;;;26.04;63.03;98476.25;5037167;28;20682;-85
2023/08/01 04:47:47;;;;;;;16.90;10.03;;;;;;;26.16;63.27;98484.63;5019500;28;20225;-85
2023/08/01 04:50:13;;;;;;;17.50;10.35;;;;;;;26.30;62.66;98482.84;5019436;28;20181;-85
2023/08/01 04:52:38;;;;;;;15.20;10.60;;;;;;;26.40;62.33;98483.34;5019418;28;20616;-85
2023/08/01 04:55:05;;;;;;;16.03;9.73;;;;;;;26.49;62.40;98483.00;5036633;28;20202;-85
2023/08/01 04:57:30;;;;;;;15.13;9.52;;;;;;;26.56;62.25;98485.72;5036757;28;20186;-85
2023/08/01 04:59:55;;;;;;;16.47;10.13;;;;;;;26.67;62.01;98483.31;5036867;28;20186;-85
2023/08/01 05:02:21;;;;;;;14.38;9.43;;;;;;;26.87;62.39;98475.38;5019229;28;20205;-85
2023/08/01 05:04:46;;;;;;;15.63;9.80;;;;;;;27.10;61.79;98493.88;5036432;28;20221;-85
2023/08/01 05:07:12;;;;;;;14.60;9.82;;;;;;;27.32;61.49;98488.19;5036330;28;20185;-85
2023/08/01 05:09:37;;;;;;;14.73;9.95;;;;;;;27.51;60.78;98499.22;5036519;28;20728;-85
2023/08/01 05:12:03;;;;;;;12.02;8.48;;;;;;;27.63;60.01;98495.72;5036418;28;20174;-85
2023/08/01 05:14:28;;;;;;;11.90;8.52;;;;;;;27.67;59.58;98497.00;5036308;28;20220;-85
2023/08/01 05:16:53;;;;;;;11.68;7.93;;;;;;;27.71;59.37;98500.09;5018820;28;20178;-85
2023/08/01 05:19:19;;;;;;;12.13;8.38;;;;;;;27.70;59.39;98498.44;5036210;28;20173;-85
2023/08/01 05:21:46;;;;;;;12.70;8.00;;;;;;;27.78;59.56;98501.75;5018755;28;20198;-85
2023/08/01 05:24:11;;;;;;;10.93;7.45;;;;;;;27.80;59.60;98506.97;5019112;28;20178;-85
2023/08/01 05:26:37;;;;;;;12.60;7.38;;;;;;;27.94;59.02;98504.06;5018788;28;20185;-85
2023/08/01 05:29:02;;;;;;;11.93;7.97;;;;;;;28.04;58.40;98503.66;5036213;28;20186;-85
2023/08/01 05:31:28;;;;;;;10.77;7.78;;;;;;;28.06;58.05;98512.41;5036111;28;20608;-85
2023/08/01 05:33:53;;;;;;;10.75;7.07;;;;;;;28.06;57.85;98504.31;5018619;28;20181;-85
2023/08/01 05:36:18;;;;;;;14.52;8.55;;;;;;;28.05;57.94;98502.66;5018049;28;20175;-85
2023/08/01 05:38:44;;;;;;;12.32;7.72;;;;;;;28.04;57.83;98509.06;5035860;28;20539;-85
2023/08/01 05:41:09;;;;;;;14.25;7.85;;;;;;;28.04;58.17;98507.19;5018468;28;20206;-85
2023/08/01 05:43:34;;;;;;;11.98;7.75;;;;;;;28.03;58.76;98507.41;5018418;28;20259;-85
2023/08/01 05:46:00;;;;;;;13.90;8.25;;;;;;;28.10;57.84;98507.41;5018414;28;20174;-85
2023/08/01 05:48:25;;;;;;;10.18;7.15;;;;;;;28.18;57.92;98516.13;5018164;28;20185;-85
2023/08/01 05:50:53;;;;;;;13.55;7.10;;;;;;;28.29;57.48;98511.97;5036042;28;20171;-85
2023/08/01 05:53:18;;;;;;;13.00;7.13;;;;;;;28.41;56.96;98496.81;5018286;28;20236;-85
2023/08/01 05:55:44;;;;;;;9.93;6.63;;;;;;;28.53;56.31;98509.47;5018561;28;20182;-85
2023/08/01 05:58:09;;;;;;;9.55;6.05;;;;;;;28.66;56.21;98511.34;5035872;28;20616;-85
2023/08/01 06:00:34;;;;;;;8.45;5.28;;;;;;;28.69;54.82;98504.69;5018077;28;20207;-85
2023/08/01 06:03:01;;;;;;;8.35;4.90;;;;;;;28.90;52.86;98509.81;5035526;28;20182;-85
2023/08/01 06:05:26;;;;;;;8.15;4.63;;;;;;;28.92;51.20;98507.75;5035413;28;20182;-85
2023/08/01 06:07:51;;;;;;;6.30;4.15;;;;;;;29.02;49.86;98511.66;5035431;28;20632;-86
2023/08/01 06:10:17;;;;;;;6.82;4.68;;;;;;;29.19;48.23;98506.63;5035956;28;20231;-85
2023/08/01 06:12:42;;;;;;;5.68;3.65;;;;;;;29.31;48.39;98506.78;5035882;28;20257;-85
2023/08/01 06:15:08;;;;;;;7.50;4.10;;;;;;;29.42;48.99;98506.94;5035251;28;20189;-85
2023/08/01 06:17:33;;;;;;;7.43;3.92;;;;;;;29.54;49.54;98502.50;5035269;28;20255;-85
2023/08/01 06:19:59;;;;;;;7.82;5.32;;;;;;;29.59;48.97;98499.97;5035140;28;20181;-85
2023/08/01 06:22:24;;;;;;;7.40;4.78;;;;;;;29.78;49.10;98500.91;5017657;28;20291;-86
2023/08/01 06:24:50;;;;;;;8.32;4.72;;;;;;;29.93;48.36;98495.22;5017699;28;20532;-85
2023/08/01 06:27:15;;;;;;;6.63;4.50;;;;;;;30.09;47.04;98494.66;5035068;28;20185;-86
2023/08/01 06:29:40;;;;;;;7.20;4.10;;;;;;;30.30;46.76;98496.97;5035022;28;20243;-86
2023/08/01 06:32:06;;;;;;;9.90;5.07;;;;;;;30.48;46.15;98480.00;5017550;28;20629;-86
2023/08/01 06:34:32;;;;;;;6.57;4.60;;;;;;;30.47;46.51;98487.28;5017517;28;20182;-86
2023/08/01 06:36:57;;;;;;;7.03;4.00;;;;;;;30.83;44.73;98490.03;5017507;28;20174;-86
2023/08/01 06:39:22;;;;;;;5.38;3.90;;;;;;;31.06;44.42;98488.53;5034687;28;20551;-86
2023/08/01 06:41:48;;;;;;;6.95;4.47;;;;;;;31.19;44.34;98488.38;5034682;28;20569;-86
2023/08/01 06:44:13;;;;;;;6.90;4.22;;;;;;;31.54;44.57;98483.97;5017335;28;20537;-86
2023/08/01 06:46:38;;;;;;;6.20;3.78;;;;;;;31.82;43.78;98489.59;5017267;28;20186;-86
2023/08/01 06:49:04;;;;;;;5.82;4.20;;;;;;;32.04;41.77;98488.03;5033849;28;20185;-86
2023/08/01 06:51:29;;;;;;;5.45;3.45;;;;;;;32.23;41.62;98484.13;5034909;28;20543;-86
2023/08/01 06:53:55;;;;;;;6.43;3.72;;;;;;;32.51;42.32;98488.06;5034445;28;20651;-86
2023/08/01 06:56:21;;;;;;;5.53;3.60;;;;;;;32.79;41.62;98488.16;5034768;28;20178;-86
2023/08/01 06:58:47;;;;;;;6.63;3.92;;;;;;;32.99;40.75;98485.91;5034379;28;20171;-87
2023/08/01 07:01:12;;;;;;;7.03;3.78;;;;;;;33.24;40.25;98491.06;5034079;28;20206;-87
2023/08/01 07:03:38;;;;;;;6.13;3.38;;;;;;;33.50;39.39;98489.66;5017102;28;20174;-86
2023/08/01 07:06:03;;;;;;;4.72;3.20;;;;;;;33.67;38.65;98487.84;5017694;28;20174;-86
2023/08/01 07:08:29;;;;;;;4.72;3.45;;;;;;;33.82;40.13;98488.94;5034756;28;20184;-87
2023/08/01 07:10:54;;;;;;;5.35;3.47;;;;;;;33.71;37.55;98486.28;5016725;28;20170;-87
2023/08/01 07:13:19;;;;;;;4.85;2.95;;;;;;;33.66;38.39;98489.72;5016769;28;20167;-87
2023/08/01 07:15:45;;;;;;;6.38;3.30;;;;;;;33.56;38.92;98492.25;5017078;28;20181;-87
2023/08/01 07:18:11;;;;;;;5.30;3.17;;;;;;;33.69;39.37;98482.97;5034125;28;20616;-87
2023/08/01 07:20:36;;;;;;;5.47;3.40;;;;;;;34.05;38.69;98482.50;5033999;28;20255;-87
2023/08/01 07:23:02;;;;;;;6.03;3.25;;;;;;;34.12;37.79;98483.19;5034031;28;20225;-87
2023/08/01 07:25:27;;;;;;;5.13;3.20;;;;;;;34.44;38.26;98484.25;5033990;28;20256;-87
2023/08/01 07:27:52;;;;;;;8.70;3.33;;;;;;;34.35;35.98;98476.78;5033898;28;20249;-87
2023/08/01 07:30:18;;;;;;;4.53;2.78;;;;;;;34.40;36.85;98479.56;5016759;28;20181;-87
2023/08/01 07:32:43;;;;;;;4.72;2.97;;;;;;;34.65;36.70;98479.13;5016464;28;20257;-87
2023/08/01 07:35:09;;;;;;;4.55;2.90;;;;;;;34.94;37.36;98475.19;5033804;28;20635;-87
2023/08/01 07:37:37;;;;;;;5.95;2.75;;;;;;;35.10;36.23;98475.16;5017150;28;20174;-87
2023/08/01 07:40:04;;;;;;;5.20;3.10;;;;;;;35.51;34.26;98478.34;5033948;28;20636;-87
2023/08/01 07:42:29;;;;;;;3.92;2.33;;;;;;;35.73;33.94;98479.97;5016515;28;20178;-87
2023/08/01 07:44:55;;;;;;;4.30;2.63;;;;;;;35.84;34.42;98474.59;5033617;28;20232;-87
2023/08/01 07:47:21;;;;;;;4.53;2.30;;;;;;;35.52;33.58;98477.25;5034434;28;20166;-87
2023/08/01 07:49:46;;;;;;;3.38;2.10;;;;;;;35.40;33.65;98474.69;5033800;28;20175;-87
2023/08/01 07:52:11;;;;;;;4.95;2.30;;;;;;;35.61;32.50;98470.31;5017012;28;20193;-88
2023/08/01 07:54:37;;;;;;;3.53;2.38;;;;;;;35.77;33.67;98467.44;5034020;28;20171;-88
2023/08/01 07:57:03;;;;;;;3.63;2.25;;;;;;;35.58;32.04;98460.75;5015990;28;20189;-87
2023/08/01 07:59:28;;;;;;;3.63;2.60;;;;;;;35.66;32.97;98468.47;5016595;28;20531;-87
2023/08/01 08:01:54;;;;;;;5.20;2.28;;;;;;;35.59;34.39;98462.38;5033566;28;20572;-88
2023/08/01 08:04:19;;;;;;;4.50;2.33;;;;;;;36.01;33.24;98464.44;5016010;28;20197;-88
2023/08/01 08:06:46;;;;;;;3.85;2.15;;;;;;;36.32;32.79;98455.41;5033369;28;20221;-88
2023/08/01 08:09:11;;;;;;;3.92;2.67;;;;;;;36.67;32.86;98460.25;5015866;28;20189;-88
2023/08/01 08:11:37;;;;;;;3.60;2.05;;;;;;;36.78;32.42;98454.59;5016719;28;20256;-88
2023/08/01 08:14:02;;;;;;;3.80;2.35;;;;;;;36.17;31.25;98452.53;5015835;28;20220;-89
2023/08/01 08:16:28;;;;;;;3.95;2.30;;;;;;;35.90;33.50;98454.47;5015836;28;20182;-88
2023/08/01 08:18:53;;;;;;;4.15;2.25;;;;;;;36.16;33.97;98459.91;5033476;28;20213;-87
2023/08/01 08:21:19;;;;;;;6.82;2.50;;;;;;;36.41;31.89;98448.34;5033376;28;20194;-88
2023/08/01 08:23:44;;;;;;;4.50;2.75;;;;;;;36.61;31.84;98447.69;5033179;28;20636;-88
2023/08/01 08:26:10;;;;;;;4.32;2.28;;;;;;;36.79;32.00;98452.69;5015721;28;20178;-87
2023/08/01 08:28:36;;;;;;;3.85;2.20;;;;;;;36.90;31.70;98447.00;5033087;28;20225;-88
2023/08/01 08:31:02;;;;;;;4.35;2.40;;;;;;;36.88;31.49;98440.97;5033099;28;20170;-88
2023/08/01 08:33:28;;;;;;;3.20;2.05;;;;;;;37.21;31.35;98441.69;5015673;28;20186;-88
2023/08/01 08:35:54;;;;;;;3.08;1.98;;;;;;;37.38;31.24;98434.06;5015474;28;20190;-87
2023/08/01 08:38:20;;;;;;;4.03;2.50;;;;;;;37.35;29.21;98438.16;5015674;28;20194;-89
2023/08/01 08:41:04;;;;;;;3.88;2.20;;;;;;;37.48;30.52;98439.59;5032892;28;20198;-88
2023/08/01 08:43:31;;;;;;;6.05;2.10;;;;;;;37.42;31.03;98427.00;5033154;28;20166;-88
2023/08/01 08:45:59;;;;;;;5.78;2.50;;;;;;;37.20;30.39;98429.94;5015561;28;20543;-88
2023/08/01 08:48:26;;;;;;;4.50;2.55;;;;;;;37.40;30.62;98438.19;5032958;28;20221;-88
2023/08/01 08:50:54;;;;;;;3.50;2.33;;;;;;;37.80;30.29;98431.97;5033453;28;20258;-88
2023/08/01 08:53:21;;;;;;;3.53;2.13;;;;;;;37.36;28.58;98433.53;5032876;28;20178;-87
2023/08/01 08:55:46;;;;;;;5.28;2.42;;;;;;;37.42;30.48;98427.00;5016200;28;20224;-87
2023/08/01 08:58:12;;;;;;;3.40;2.20;;;;;;;37.25;31.87;98427.19;5016536;28;20291;-87
2023/08/01 09:00:38;;;;;;;3.70;2.50;;;;;;;37.63;31.17;98420.47;5033292;28;20198;-87
2023/08/01 09:03:05;;;;;;;4.78;2.55;;;;;;;37.35;30.69;98426.41;5013779;28;20189;-88
2023/08/01 09:05:40;;;;;;;3.45;2.40;;;;;;;37.71;29.19;98419.13;5014501;28;20304;-87
2023/08/01 09:08:09;;;;;;;6.93;3.17;;;;;;;36.78;29.80;98416.34;5031686;28;20190;-88
2023/08/01 09:10:35;;;;;;;3.50;2.30;;;;;;;36.87;30.76;98411.22;5032855;28;20170;-87
2023/08/01 09:13:01;;;;;;;5.55;2.92;;;;;;;37.31;30.18;98412.47;5017790;28;20714;-88
2023/08/01 09:15:28;;;;;;;5.68;3.35;;;;;;;37.48;30.80;98414.97;5036576;28;20173;-88
2023/08/01 09:18:00;;;;;;;8.73;2.95;;;;;;;37.60;30.35;98401.88;5036237;28;20178;-88
2023/08/01 09:20:29;;;;;;;3.72;2.40;;;;;;;37.59;30.60;98411.16;5019223;28;20297;-87
2023/08/01 09:22:55;;;;;;;5.45;2.88;;;;;;;37.78;29.79;98406.81;5036345;28;20175;-87
2023/08/01 09:25:32;;;;;;;6.97;2.42;;;;;;;37.94;29.65;98408.47;5036348;28;20531;-88
2023/08/01 09:27:57;;;;;;;4.00;2.55;;;;;;;38.16;29.08;98399.16;5036292;28;20178;-88
2023/08/01 09:30:23;;;;;;;4.28;2.35;;;;;;;38.56;28.96;98394.41;5018917;28;20236;-87
2023/08/01 09:32:55;;;;;;;3.65;2.17;;;;;;;38.67;28.09;98397.94;5035723;28;20170;-87
2023/08/01 09:35:21;;;;;;;6.82;2.00;;;;;;;38.88;29.29;98391.31;5036166;28;20178;-88
2023/08/01 09:37:47;;;;;;;4.28;2.10;;;;;;;39.23;28.95;98388.38;5018475;28;20244;-87
2023/08/01 09:40:13;;;;;;;3.25;2.15;;;;;;;39.33;27.98;98392.19;5035763;28;20202;-87
2023/08/01 09:42:40;;;;;;;3.78;2.33;;;;;;;39.09;27.73;98381.06;5036112;28;20182;-87
2023/08/01 09:45:16;;;;;;;3.10;1.88;;;;;;;38.99;25.85;98376.47;5018370;28;20623;-88
2023/08/01 09:47:43;;;;;;;3.63;2.10;;;;;;;38.36;27.36;98379.97;5036222;28;20514;-87
2023/08/01 09:50:12;;;;;;;3.22;1.88;;;;;;;38.50;27.63;98368.13;5018427;28;20194;-87
2023/08/01 09:52:37;;;;;;;4.15;1.83;;;;;;;38.43;27.67;98375.00;5035569;28;20185;-87
2023/08/01 09:55:03;;;;;;;3.78;2.08;;;;;;;37.87;28.40;98377.81;5018024;28;20183;-89
2023/08/01 09:57:30;;;;;;;3.50;2.17;;;;;;;37.54;28.99;98381.91;5018742;28;20180;-88
2023/08/01 09:59:59;;;;;;;2.47;1.48;;;;;;;37.83;28.79;98370.41;5018102;28;20184;-88
2023/08/01 10:02:29;;;;;;;4.25;2.03;;;;;;;38.06;28.69;98367.94;5017992;28;20191;-87
2023/08/01 10:04:57;;;;;;;2.92;1.95;;;;;;;38.30;28.26;98368.16;5017317;28;20620;-88
2023/08/01 10:07:28;;;;;;;3.22;1.98;;;;;;;38.47;27.50;98351.44;5034626;28;20193;-88
2023/08/01 10:09:58;;;;;;;4.80;2.10;;;;;;;38.38;27.89;98353.94;5035679;28;20269;-87
2023/08/01 10:12:27;;;;;;;3.40;2.08;;;;;;;38.00;28.52;98352.63;5035258;28;20240;-88
2023/08/01 10:14:53;;;;;;;4.28;1.90;;;;;;;38.32;27.74;98346.00;5035132;28;20198;-88
2023/08/01 10:17:21;;;;;;;3.13;1.77;;;;;;;38.70;28.39;98339.84;5034810;28;20244;-88
2023/08/01 10:19:48;;;;;;;5.85;1.92;;;;;;;39.11;27.51;98337.72;5017785;28;20182;-87
2023/08/01 10:22:15;;;;;;;4.78;2.55;;;;;;;39.14;26.56;98334.41;5035294;28;20198;-88
2023/08/01 10:24:41;;;;;;;3.38;1.98;;;;;;;39.14;25.73;98328.94;5034793;28;20178;-88
2023/08/01 10:27:14;;;;;;;3.25;1.88;;;;;;;38.84;26.74;98332.66;5035064;28;20197;-87
2023/08/01 10:29:40;;;;;;;3.10;2.03;;;;;;;38.98;26.89;98330.13;5035338;28;20181;-88
2023/08/01 10:32:07;;;;;;;4.55;2.42;;;;;;;39.22;26.82;98328.34;5035282;28;20174;-89
2023/08/01 10:34:33;;;;;;;4.22;2.40;;;;;;;39.54;26.59;98317.69;5034912;28;20174;-88
2023/08/01 10:36:59;;;;;;;2.92;1.80;;;;;;;39.44;26.20;98308.72;5034866;28;20193;-88
2023/08/01 10:39:27;;;;;;;3.13;1.98;;;;;;;39.17;26.56;98307.25;5035113;28;20174;-88
2023/08/01 10:42:05;;;;;;;3.50;2.08;;;;;;;39.28;27.49;98306.09;5035002;28;20232;-88
2023/08/01 10:44:33;;;;;;;4.93;2.65;;;;;;;39.46;25.68;98301.03;5017236;28;20243;-88
2023/08/01 10:47:04;;;;;;;4.45;2.60;;;;;;;38.88;25.46;98303.59;5034570;28;20690;-89
2023/08/01 10:49:38;;;;;;;5.20;2.95;;;;;;;38.50;26.91;98301.56;5034953;28;20189;-87
2023/08/01 10:52:19;;;;;;;4.05;2.30;;;;;;;38.39;27.37;98300.00;5034563;28;20166;-88
2023/08/01 10:54:45;;;;;;;6.93;2.70;;;;;;;38.46;27.62;98290.38;5017161;28;20170;-88
2023/08/01 10:57:17;;;;;;;3.55;2.20;;;;;;;38.37;26.93;98292.03;5017057;28;20179;-88
2023/08/01 10:59:43;;;;;;;3.15;2.03;;;;;;;38.84;26.64;98279.81;5034554;28;20545;-88
2023/08/01 11:02:09;;;;;;;6.30;2.20;;;;;;;38.91;27.10;98283.84;5034574;28;20253;-88
2023/08/01 11:04:34;;;;;;;3.33;2.20;;;;;;;38.93;27.39;98278.06;5034392;28;20190;-88
2023/08/01 11:07:00;;;;;;;3.38;2.45;;;;;;;39.21;26.97;98278.19;5017475;28;20186;-89
2023/08/01 11:09:27;;;;;;;4.20;2.30;;;;;;;38.38;26.09;98270.97;5034314;28;20530;-89
2023/08/01 11:11:57;;;;;;;5.10;2.72;;;;;;;37.48;27.60;98268.13;5034188;28;20202;-89
2023/08/01 11:14:26;;;;;;;4.22;2.30;;;;;;;37.65;27.83;98277.97;5034758;28;20166;-88
2023/08/01 11:16:54;;;;;;;4.57;2.97;;;;;;;37.98;27.37;98267.25;5016426;28;20178;-87
2023/08/01 11:19:20;;;;;;;4.35;2.40;;;;;;;38.61;25.83;98254.69;5034096;28;20231;-88
2023/08/01 11:21:46;;;;;;;6.03;2.10;;;;;;;38.70;27.64;98252.16;5033945;28;20293;-88
2023/08/01 11:24:12;;;;;;;6.70;2.53;;;;;;;38.87;26.90;98252.63;5034143;28;20256;-88
2023/08/01 11:26:42;;;;;;;3.97;2.50;;;;;;;38.01;27.17;98252.19;5016849;28;20681;-88